Time;durP1;ratioP1;P1;durP2;ratioP2;P2;SDS_P1;SDS_P2;PMS_P1;PMS_P2;Temp;Humidity;BMP_temperature;BMP_pressure;BME280_temperature;BME280_humidity;BME280_pressure;Samples;Min_cycle;Max_cycle;Signal;HPM_P1;HPM_P2
2022/04/27 00:02:07;;;;;;;10.95;3.80;;;18.40;67.90;;;;;;5027732;28;20033;-63
2022/04/27 00:04:34;;;;;;;13.50;3.65;;;18.40;67.90;;;;;;5025634;28;20021;-69
2022/04/27 00:07:04;;;;;;;14.93;3.63;;;18.40;68.10;;;;;;5027073;28;20057;-66
2022/04/27 00:09:31;;;;;;;7.43;2.70;;;18.30;68.20;;;;;;5026615;28;20120;-67
2022/04/27 00:12:00;;;;;;;12.00;3.95;;;18.40;68.50;;;;;;5026981;28;20083;-67
2022/04/27 00:14:29;;;;;;;12.10;3.38;;;18.30;68.50;;;;;;5027871;28;20441;-65
2022/04/27 00:16:56;;;;;;;17.27;3.70;;;18.30;68.60;;;;;;5026659;28;20029;-67
2022/04/27 00:19:24;;;;;;;20.83;4.00;;;18.30;69.10;;;;;;5027684;28;20033;-66
2022/04/27 00:21:50;;;;;;;19.58;4.05;;;18.30;69.30;;;;;;5025864;28;20034;-65
2022/04/27 00:24:17;;;;;;;16.02;3.90;;;18.30;69.60;;;;;;5026120;28;20458;-64
2022/04/27 00:26:45;;;;;;;20.00;4.05;;;18.30;69.60;;;;;;5026675;28;20021;-71
2022/04/27 00:29:12;;;;;;;20.35;4.97;;;18.30;69.60;;;;;;5027282;28;20428;-63
2022/04/27 00:31:38;;;;;;;15.20;3.70;;;18.20;69.70;;;;;;5027238;28;20495;-63
2022/04/27 00:34:04;;;;;;;10.40;4.82;;;18.30;69.60;;;;;;5026637;28;20032;-66
2022/04/27 00:36:31;;;;;;;14.90;4.70;;;18.20;69.40;;;;;;5026424;28;20100;-63
2022/04/27 00:38:58;;;;;;;18.10;4.43;;;18.20;69.50;;;;;;5026128;28;20491;-65
2022/04/27 00:41:25;;;;;;;16.00;4.63;;;18.20;69.60;;;;;;5026821;28;20095;-63
2022/04/27 00:43:51;;;;;;;12.20;4.15;;;18.20;69.40;;;;;;5041015;28;20022;-71
2022/04/27 00:46:18;;;;;;;16.48;4.70;;;18.20;69.30;;;;;;5026732;28;20514;-63
2022/04/27 00:48:44;;;;;;;23.90;6.22;;;18.20;69.30;;;;;;5026648;28;20033;-63
2022/04/27 00:51:16;;;;;;;12.80;3.72;;;18.10;69.40;;;;;;5025759;28;20006;-63
2022/04/27 00:53:43;;;;;;;22.52;5.22;;;18.20;69.60;;;;;;5026010;28;20029;-68
2022/04/27 00:56:12;;;;;;;13.05;3.25;;;18.10;69.60;;;;;;5026145;28;21042;-68
2022/04/27 00:58:38;;;;;;;12.98;4.63;;;18.10;69.60;;;;;;5026109;28;20432;-63
2022/04/27 01:01:04;;;;;;;13.45;5.18;;;18.10;69.70;;;;;;5026104;28;20384;-64
2022/04/27 01:03:35;;;;;;;22.38;4.15;;;18.10;69.70;;;;;;5025000;28;20053;-70
2022/04/27 01:06:04;;;;;;;17.58;3.53;;;18.10;69.90;;;;;;5026152;28;20048;-66
2022/04/27 01:08:30;;;;;;;16.83;3.38;;;18.10;69.90;;;;;;5026713;28;21380;-68
2022/04/27 01:10:59;;;;;;;12.52;4.22;;;18.10;69.90;;;;;;5030899;28;20021;-67
2022/04/27 01:13:29;;;;;;;9.32;3.05;;;18.10;69.90;;;;;;5029554;28;20385;-65
2022/04/27 01:15:56;;;;;;;14.90;3.65;;;18.00;69.90;;;;;;5029650;28;20025;-75
2022/04/27 01:18:22;;;;;;;15.73;3.75;;;18.00;69.80;;;;;;5029443;28;20026;-69
2022/04/27 01:20:50;;;;;;;17.90;3.20;;;18.00;70.00;;;;;;5030389;28;20049;-64
2022/04/27 01:23:17;;;;;;;10.45;2.72;;;18.00;70.00;;;;;;5029070;28;20075;-68
2022/04/27 01:25:49;;;;;;;8.00;2.65;;;18.00;69.90;;;;;;5030049;28;20009;-65
2022/04/27 01:28:21;;;;;;;13.80;3.25;;;18.00;70.00;;;;;;5029191;28;20021;-64
2022/04/27 01:30:49;;;;;;;15.32;3.45;;;17.90;69.90;;;;;;5030006;28;20097;-64
2022/04/27 01:33:15;;;;;;;10.20;3.35;;;18.00;69.90;;;;;;5030476;28;20076;-70
2022/04/27 01:35:42;;;;;;;14.55;3.63;;;17.90;69.40;;;;;;5028391;28;20481;-68
2022/04/27 01:38:08;;;;;;;5.93;2.40;;;17.90;69.10;;;;;;5030376;28;20017;-69
2022/04/27 01:40:36;;;;;;;8.43;3.10;;;17.90;69.00;;;;;;5010329;28;20104;-64
2022/04/27 01:43:02;;;;;;;10.77;3.20;;;17.90;68.90;;;;;;5029858;28;20021;-69
2022/04/27 01:45:29;;;;;;;10.55;3.15;;;17.90;68.90;;;;;;5029846;28;20009;-69
2022/04/27 01:47:57;;;;;;;12.57;3.30;;;17.90;68.90;;;;;;5028652;28;20476;-70
2022/04/27 01:50:23;;;;;;;13.52;4.65;;;17.90;68.80;;;;;;5030675;28;20042;-67
2022/04/27 01:55:34;;;;;;;10.35;2.95;;;17.80;68.70;;;;;;5029457;28;20039;-67
2022/04/27 01:58:01;;;;;;;11.18;3.17;;;17.80;68.80;;;;;;5029642;28;20020;-67
2022/04/27 02:00:28;;;;;;;18.90;3.53;;;17.80;69.10;;;;;;5029119;28;20083;-64
2022/04/27 02:02:54;;;;;;;10.55;3.25;;;17.80;69.50;;;;;;5029505;28;20615;-68
2022/04/27 02:05:22;;;;;;;13.75;2.67;;;17.70;69.50;;;;;;5028975;28;20025;-63
2022/04/27 02:07:48;;;;;;;14.10;2.85;;;17.70;69.50;;;;;;5030377;28;20028;-63
2022/04/27 02:10:15;;;;;;;11.15;3.22;;;17.70;69.50;;;;;;5028058;28;20057;-66
2022/04/27 02:12:41;;;;;;;9.32;2.85;;;17.70;69.60;;;;;;5029958;28;20131;-67
2022/04/27 02:15:09;;;;;;;18.38;4.25;;;17.70;69.50;;;;;;5028830;28;20028;-68
2022/04/27 02:17:35;;;;;;;18.38;4.72;;;17.70;69.60;;;;;;5029445;28;20036;-70
2022/04/27 02:20:04;;;;;;;21.42;10.02;;;17.60;69.70;;;;;;5030027;28;20041;-70
2022/04/27 02:22:33;;;;;;;21.95;11.68;;;17.70;69.80;;;;;;5028135;28;20036;-64
2022/04/27 02:25:01;;;;;;;18.02;7.25;;;17.60;69.80;;;;;;5029514;28;20021;-63
2022/04/27 02:27:28;;;;;;;14.30;5.10;;;17.60;69.90;;;;;;5028665;28;20140;-64
2022/04/27 02:29:55;;;;;;;9.80;3.75;;;17.60;70.00;;;;;;5029544;28;20072;-63
2022/04/27 02:32:23;;;;;;;14.93;4.63;;;17.60;70.00;;;;;;5028328;28;20029;-63
2022/04/27 02:34:51;;;;;;;11.02;3.05;;;17.60;70.10;;;;;;5010498;28;20428;-63
2022/04/27 02:37:17;;;;;;;13.00;3.63;;;17.60;70.10;;;;;;5028018;28;20080;-65
2022/04/27 02:39:44;;;;;;;22.35;3.78;;;17.60;70.10;;;;;;5027983;28;20018;-68
2022/04/27 02:42:10;;;;;;;15.00;2.92;;;17.60;70.10;;;;;;5029300;28;20049;-74
2022/04/27 02:44:37;;;;;;;9.65;3.05;;;17.60;70.10;;;;;;5028366;28;20017;-70
2022/04/27 02:47:04;;;;;;;9.20;2.58;;;17.60;70.10;;;;;;5028843;28;20091;-73
2022/04/27 02:52:15;;;;;;;6.90;2.45;;;17.50;70.00;;;;;;5028546;28;20385;-76
2022/04/27 02:54:42;;;;;;;10.10;2.67;;;17.50;70.10;;;;;;5011339;28;20396;-70
2022/04/27 02:57:08;;;;;;;15.15;4.72;;;17.50;70.10;;;;;;5027801;28;20026;-73
2022/04/27 02:59:35;;;;;;;6.63;2.35;;;17.50;70.00;;;;;;5028747;28;20033;-74
2022/04/27 03:02:02;;;;;;;8.43;2.28;;;17.50;70.00;;;;;;5007419;28;20088;-73
2022/04/27 03:04:28;;;;;;;12.57;2.75;;;17.50;70.20;;;;;;5029256;28;20029;-75
2022/04/27 03:06:55;;;;;;;12.45;2.63;;;17.50;70.00;;;;;;5028050;28;20103;-70
2022/04/27 03:09:22;;;;;;;12.65;4.05;;;17.50;69.90;;;;;;5028423;28;20401;-71
2022/04/27 03:11:48;;;;;;;10.30;2.33;;;17.40;69.70;;;;;;5028957;28;20059;-76
2022/04/27 03:14:15;;;;;;;10.23;2.50;;;17.50;69.70;;;;;;5026779;28;20037;-74
2022/04/27 03:16:41;;;;;;;11.27;2.47;;;17.50;69.60;;;;;;5028737;28;20026;-73
2022/04/27 03:19:08;;;;;;;9.77;3.15;;;17.40;69.40;;;;;;5027712;28;20530;-74
2022/04/27 03:21:34;;;;;;;18.27;2.33;;;17.40;69.30;;;;;;5028304;28;20485;-76
2022/04/27 03:24:01;;;;;;;14.15;3.75;;;17.40;69.40;;;;;;5027299;28;20419;-73
2022/04/27 03:26:27;;;;;;;9.90;2.70;;;17.40;69.60;;;;;;5028780;28;20029;-73
2022/04/27 03:28:54;;;;;;;19.85;3.35;;;17.40;69.50;;;;;;5028229;28;20052;-73
2022/04/27 03:31:20;;;;;;;9.88;2.55;;;17.40;69.30;;;;;;5026762;28;20017;-73
2022/04/27 03:33:47;;;;;;;8.00;2.25;;;17.40;69.10;;;;;;5043676;28;20448;-69
2022/04/27 03:36:13;;;;;;;6.03;2.00;;;17.40;68.90;;;;;;5006601;28;20036;-70
2022/04/27 03:38:41;;;;;;;11.82;2.28;;;17.30;68.80;;;;;;5028611;28;20458;-74
2022/04/27 03:41:07;;;;;;;8.63;1.88;;;17.40;68.80;;;;;;5027087;28;20388;-73
2022/04/27 03:43:34;;;;;;;5.57;1.90;;;17.30;68.60;;;;;;5027299;28;20473;-74
2022/04/27 03:46:00;;;;;;;7.68;2.35;;;17.30;68.70;;;;;;5027300;28;20493;-72
2022/04/27 03:48:27;;;;;;;8.10;2.05;;;17.40;68.70;;;;;;5027498;28;20504;-74
2022/04/27 03:50:53;;;;;;;34.75;5.38;;;17.30;68.70;;;;;;5026947;28;20021;-74
2022/04/27 03:53:20;;;;;;;28.95;12.88;;;17.30;69.20;;;;;;5026394;28;20555;-71
2022/04/27 03:55:46;;;;;;;20.00;10.82;;;17.30;69.70;;;;;;5027859;28;20036;-71
2022/04/27 03:58:13;;;;;;;13.90;6.82;;;17.30;69.80;;;;;;5026194;28;20013;-71
2022/04/27 04:00:39;;;;;;;10.25;4.72;;;17.30;69.80;;;;;;5026561;28;20026;-76
2022/04/27 04:03:05;;;;;;;14.10;3.90;;;17.30;69.60;;;;;;5024353;28;20036;-75
2022/04/27 04:05:32;;;;;;;7.30;2.30;;;17.30;69.40;;;;;;5027935;28;20017;-69
2022/04/27 04:07:58;;;;;;;12.57;2.75;;;17.30;69.40;;;;;;5027059;28;20025;-75
2022/04/27 04:11:05;;;;;;;11.52;2.17;;;17.30;69.30;;;;;;5026697;28;20040;-73
2022/04/27 04:14:11;;;;;;;23.48;4.63;;;17.20;69.10;;;;;;5027008;28;20052;-67
2022/04/27 04:16:37;;;;;;;13.27;2.53;;;17.20;69.20;;;;;;5027221;28;20018;-73
2022/04/27 04:19:03;;;;;;;18.25;3.28;;;17.20;69.20;;;;;;5027281;28;20028;-74
2022/04/27 04:21:30;;;;;;;9.88;3.15;;;17.20;69.20;;;;;;5027216;28;20054;-77
2022/04/27 04:23:56;;;;;;;11.32;2.20;;;17.20;69.20;;;;;;5025999;28;20543;-75
2022/04/27 04:29:07;;;;;;;4.18;2.10;;;17.10;68.90;;;;;;5025848;28;20110;-67
2022/04/27 04:31:34;;;;;;;22.80;4.65;;;17.20;68.90;;;;;;5025345;28;20025;-72
2022/04/27 04:34:00;;;;;;;43.67;28.55;;;17.10;69.10;;;;;;5026290;28;20040;-67
2022/04/27 04:36:27;;;;;;;37.47;22.63;;;17.20;69.60;;;;;;5024960;28;20091;-69
2022/04/27 04:38:53;;;;;;;24.15;12.63;;;17.10;69.10;;;;;;5026864;28;20029;-70
2022/04/27 04:41:20;;;;;;;21.88;7.05;;;17.20;68.80;;;;;;5025916;28;20033;-68
2022/04/27 04:43:46;;;;;;;9.45;3.50;;;17.10;68.50;;;;;;5026418;28;20045;-65
2022/04/27 04:46:12;;;;;;;12.20;3.33;;;17.10;68.20;;;;;;5024848;28;20018;-68
2022/04/27 04:48:39;;;;;;;6.68;1.88;;;17.10;68.00;;;;;;5027012;28;20025;-73
2022/04/27 04:51:05;;;;;;;8.77;2.22;;;17.10;67.60;;;;;;5026624;28;20036;-65
2022/04/27 04:53:32;;;;;;;5.25;1.55;;;17.10;67.30;;;;;;5026013;28;20029;-71
2022/04/27 04:55:58;;;;;;;10.63;2.75;;;17.00;67.10;;;;;;5026074;28;20509;-70
2022/04/27 04:58:25;;;;;;;7.75;1.90;;;17.10;67.10;;;;;;5023649;28;20500;-68
2022/04/27 05:00:51;;;;;;;8.40;2.03;;;17.00;67.10;;;;;;5026592;28;20022;-71
2022/04/27 05:03:18;;;;;;;10.52;1.50;;;17.00;66.90;;;;;;5026323;28;20031;-67
2022/04/27 05:05:44;;;;;;;3.80;1.52;;;17.00;66.90;;;;;;5025792;28;20461;-68
2022/04/27 05:08:11;;;;;;;10.05;1.80;;;17.00;66.80;;;;;;5024551;28;20021;-69
2022/04/27 05:10:37;;;;;;;12.65;2.25;;;17.00;66.70;;;;;;5025633;28;20025;-69
2022/04/27 05:13:04;;;;;;;19.02;2.65;;;17.00;66.70;;;;;;5024589;28;20512;-71
2022/04/27 05:15:31;;;;;;;20.83;2.47;;;17.00;67.00;;;;;;5024864;28;20029;-66
2022/04/27 05:17:58;;;;;;;9.10;2.13;;;16.90;67.20;;;;;;5007531;28;21219;-63
2022/04/27 05:20:24;;;;;;;9.05;1.90;;;17.00;67.30;;;;;;5023764;28;20048;-70
2022/04/27 05:22:51;;;;;;;6.78;2.30;;;17.00;67.20;;;;;;5025378;28;20790;-65
2022/04/27 05:25:18;;;;;;;11.98;1.98;;;17.00;67.30;;;;;;5023967;28;20041;-63
2022/04/27 05:27:44;;;;;;;7.50;2.45;;;16.90;67.30;;;;;;5024107;28;20112;-63
2022/04/27 05:32:56;;;;;;;8.30;2.63;;;17.00;67.50;;;;;;5024701;28;20132;-71
2022/04/27 05:35:22;;;;;;;12.23;3.50;;;17.00;67.50;;;;;;5026405;28;20030;-65
2022/04/27 05:37:49;;;;;;;10.93;4.43;;;17.00;67.60;;;;;;5026139;28;20032;-65
2022/04/27 05:40:25;;;;;;;12.55;4.68;;;17.00;67.80;;;;;;5023837;28;20060;-69
2022/04/27 05:42:51;;;;;;;22.40;14.75;;;17.00;67.90;;;;;;5024422;28;20030;-64
2022/04/27 05:45:19;;;;;;;20.50;10.93;;;17.00;68.10;;;;;;5023265;28;20061;-70
2022/04/27 05:47:45;;;;;;;16.15;6.45;;;17.00;68.20;;;;;;5024786;28;20026;-63
2022/04/27 05:50:12;;;;;;;11.88;4.40;;;17.00;68.20;;;;;;5023739;28;20021;-74
2022/04/27 05:52:52;;;;;;;11.82;3.67;;;17.00;69.20;;;;;;5023834;28;20083;-71
2022/04/27 05:55:23;;;;;;;16.00;3.75;;;17.00;68.50;;;;;;5025353;28;20109;-65
2022/04/27 05:57:49;;;;;;;8.73;2.58;;;17.00;68.50;;;;;;5028770;28;20832;-72
2022/04/27 06:00:16;;;;;;;12.70;3.22;;;17.00;68.60;;;;;;5026962;28;20061;-64
2022/04/27 06:02:44;;;;;;;3.97;2.88;;;17.00;68.60;;;;;;5028391;28;20041;-69
2022/04/27 06:05:10;;;;;;;12.70;2.88;;;17.00;68.70;;;;;;5028056;28;20393;-63
2022/04/27 06:07:38;;;;;;;9.55;3.20;;;17.00;68.60;;;;;;5026872;28;20017;-65
2022/04/27 06:10:10;;;;;;;9.80;2.35;;;17.00;69.00;;;;;;5028058;28;20348;-64
2022/04/27 06:12:47;;;;;;;25.45;12.93;;;17.10;70.30;;;;;;5027308;28;20030;-64
2022/04/27 06:15:15;;;;;;;21.70;11.75;;;17.10;70.20;;;;;;5009193;28;20029;-65
2022/04/27 06:17:51;;;;;;;18.15;7.82;;;17.10;69.80;;;;;;5026169;28;20032;-72
2022/04/27 06:20:18;;;;;;;11.77;4.90;;;17.10;69.40;;;;;;5004237;28;20046;-69
2022/04/27 06:22:45;;;;;;;7.88;3.95;;;17.10;69.30;;;;;;5025884;28;20026;-66
2022/04/27 06:25:11;;;;;;;9.57;3.10;;;17.10;69.30;;;;;;5023972;28;20113;-68
2022/04/27 06:27:38;;;;;;;12.68;2.83;;;17.10;69.40;;;;;;5026376;28;20017;-72
2022/04/27 06:30:05;;;;;;;10.45;3.28;;;17.10;69.70;;;;;;5024580;28;20039;-66
2022/04/27 06:32:33;;;;;;;10.43;2.13;;;17.10;70.00;;;;;;5008364;28;20080;-72
2022/04/27 06:35:01;;;;;;;14.13;4.25;;;17.10;70.10;;;;;;5006218;28;20702;-74
2022/04/27 06:37:28;;;;;;;9.07;3.13;;;17.10;70.20;;;;;;5009611;28;20564;-69
2022/04/27 06:39:55;;;;;;;16.98;2.70;;;17.10;70.90;;;;;;5025737;28;20092;-73
2022/04/27 06:42:22;;;;;;;13.60;2.80;;;17.10;70.20;;;;;;5024924;28;20033;-70
2022/04/27 06:44:49;;;;;;;14.25;2.80;;;17.10;70.40;;;;;;5040623;28;20018;-72
2022/04/27 06:47:16;;;;;;;10.75;2.53;;;17.10;70.50;;;;;;5025344;28;20045;-71
2022/04/27 06:49:42;;;;;;;10.65;2.53;;;17.10;70.60;;;;;;5025389;28;20017;-74
2022/04/27 06:52:09;;;;;;;11.73;3.13;;;17.10;70.70;;;;;;5025645;28;20113;-81
2022/04/27 06:54:35;;;;;;;11.25;4.18;;;17.20;70.80;;;;;;5025942;28;20033;-73
2022/04/27 06:57:02;;;;;;;14.00;5.18;;;17.20;70.70;;;;;;5017677;28;20053;-75
2022/04/27 06:59:29;;;;;;;10.60;3.30;;;17.20;70.70;;;;;;5022803;28;20408;-75
2022/04/27 07:01:55;;;;;;;9.55;3.78;;;17.20;70.60;;;;;;5023667;28;20021;-73
2022/04/27 07:04:23;;;;;;;12.75;3.15;;;17.30;70.50;;;;;;5024473;28;20017;-65
2022/04/27 07:06:49;;;;;;;27.10;4.80;;;17.30;70.40;;;;;;5015046;28;20030;-73
2022/04/27 07:09:16;;;;;;;20.50;4.40;;;17.30;70.40;;;;;;5023095;28;20030;-79
2022/04/27 07:11:42;;;;;;;16.27;3.45;;;17.40;70.90;;;;;;5021344;28;20083;-74
2022/04/27 07:14:10;;;;;;;19.58;4.53;;;17.40;71.00;;;;;;5023433;28;20052;-78
2022/04/27 07:16:36;;;;;;;34.05;6.40;;;17.40;71.10;;;;;;5023227;28;20032;-72
2022/04/27 07:19:07;;;;;;;14.73;4.35;;;17.40;70.80;;;;;;5021061;28;20074;-77
2022/04/27 07:21:33;;;;;;;15.57;4.28;;;17.50;71.10;;;;;;5024477;28;20052;-77
2022/04/27 07:24:02;;;;;;;11.35;3.30;;;17.50;71.50;;;;;;5006263;28;20017;-76
2022/04/27 07:26:29;;;;;;;14.32;4.75;;;17.60;71.90;;;;;;5021223;28;20117;-75
2022/04/27 07:28:56;;;;;;;10.18;3.58;;;17.70;71.80;;;;;;5024065;28;20014;-67
2022/04/27 07:31:26;;;;;;;11.43;4.18;;;17.70;71.80;;;;;;5022652;28;20035;-69
2022/04/27 07:33:53;;;;;;;14.30;3.80;;;17.80;71.80;;;;;;5023660;28;20117;-68
2022/04/27 07:36:20;;;;;;;13.48;4.05;;;17.80;71.80;;;;;;5021307;28;20026;-68
2022/04/27 07:38:46;;;;;;;15.45;3.83;;;17.80;71.60;;;;;;5023961;28;20017;-77
2022/04/27 07:41:13;;;;;;;10.48;3.70;;;17.90;71.70;;;;;;5025082;28;20088;-67
2022/04/27 07:43:40;;;;;;;10.13;4.28;;;17.90;72.00;;;;;;5024019;28;20021;-74
2022/04/27 07:46:08;;;;;;;16.45;4.70;;;18.00;71.10;;;;;;5024759;28;20026;-75
2022/04/27 07:48:35;;;;;;;14.70;4.82;;;18.00;71.00;;;;;;5022623;28;20532;-76
2022/04/27 07:51:04;;;;;;;14.80;4.55;;;18.10;71.10;;;;;;5022997;28;20031;-71
2022/04/27 07:53:30;;;;;;;12.75;4.80;;;18.10;71.00;;;;;;5022925;28;20042;-74
2022/04/27 07:55:57;;;;;;;11.73;4.20;;;18.10;70.90;;;;;;5022359;28;20087;-71
2022/04/27 07:58:43;;;;;;;13.38;4.63;;;18.20;70.70;;;;;;5025220;28;20040;-74
2022/04/27 08:01:19;;;;;;;19.65;4.97;;;18.20;70.40;;;;;;5003834;28;20037;-67
2022/04/27 08:03:46;;;;;;;25.85;4.75;;;18.20;70.10;;;;;;5025239;28;20025;-72
2022/04/27 08:06:24;;;;;;;17.05;4.28;;;18.30;69.70;;;;;;5019589;28;20084;-65
2022/04/27 08:08:51;;;;;;;12.32;4.20;;;18.30;69.10;;;;;;5004801;28;20401;-69
2022/04/27 08:11:18;;;;;;;14.98;4.60;;;18.40;68.80;;;;;;5021355;28;20108;-65
2022/04/27 08:13:44;;;;;;;9.45;5.25;;;18.40;68.50;;;;;;5023905;28;20628;-67
2022/04/27 08:16:12;;;;;;;18.10;6.20;;;18.50;68.50;;;;;;5019785;28;20018;-70
2022/04/27 08:18:50;;;;;;;15.93;4.93;;;18.50;68.50;;;;;;5022847;28;20021;-71
2022/04/27 08:21:16;;;;;;;12.68;5.78;;;18.60;68.20;;;;;;5022422;28;20041;-71
2022/04/27 08:23:47;;;;;;;14.10;5.88;;;18.60;68.00;;;;;;5024617;28;20111;-67
2022/04/27 08:26:16;;;;;;;15.32;5.53;;;18.70;67.60;;;;;;5024484;28;20021;-70
2022/04/27 08:28:46;;;;;;;16.30;4.90;;;18.70;67.10;;;;;;5021613;28;20025;-74
2022/04/27 08:31:14;;;;;;;17.63;6.18;;;18.70;67.20;;;;;;5022190;28;20532;-67
2022/04/27 08:33:44;;;;;;;11.82;4.85;;;18.80;67.10;;;;;;5023619;28;20033;-68
2022/04/27 08:36:11;;;;;;;15.40;5.20;;;18.90;67.40;;;;;;5022649;28;20022;-69
2022/04/27 08:38:37;;;;;;;22.30;5.53;;;18.90;67.30;;;;;;5021682;28;20029;-66
2022/04/27 08:41:04;;;;;;;11.77;4.45;;;18.90;66.70;;;;;;5021153;28;20499;-70
2022/04/27 08:43:32;;;;;;;10.40;4.80;;;19.00;66.10;;;;;;5023496;28;20044;-72
2022/04/27 08:46:03;;;;;;;14.75;6.30;;;19.00;65.80;;;;;;5022551;28;20029;-77
2022/04/27 08:48:30;;;;;;;10.25;4.28;;;19.00;65.10;;;;;;5024867;28;20127;-77
2022/04/27 08:50:57;;;;;;;15.63;4.82;;;19.10;64.70;;;;;;5002687;28;20124;-70
2022/04/27 08:53:57;;;;;;;24.90;4.78;;;19.10;64.10;;;;;;5025363;28;20069;-67
2022/04/27 08:56:23;;;;;;;16.10;4.60;;;19.10;64.20;;;;;;5005791;28;20557;-79
2022/04/27 08:58:49;;;;;;;12.18;4.95;;;19.20;63.40;;;;;;5023848;28;20022;-72
2022/04/27 09:01:21;;;;;;;21.05;4.70;;;19.20;63.00;;;;;;5024688;28;20025;-72
2022/04/27 09:03:48;;;;;;;12.57;4.30;;;19.30;62.80;;;;;;5024489;28;20188;-73
2022/04/27 09:06:16;;;;;;;18.08;4.78;;;19.30;62.10;;;;;;5021537;28;20022;-79
2022/04/27 09:08:52;;;;;;;12.75;4.53;;;19.40;61.60;;;;;;5023468;28;20385;-77
2022/04/27 09:11:27;;;;;;;16.02;5.13;;;19.40;61.00;;;;;;5023042;28;20028;-75
2022/04/27 09:14:03;;;;;;;;;;;19.50;60.60;;;;;;5026016;28;20037;-78
2022/04/27 09:22:11;;;;;;;11.73;3.40;;;19.70;60.30;;;;;;5022359;28;20743;-73
2022/04/27 09:24:52;;;;;;;8.43;4.22;;;19.70;59.60;;;;;;5024748;28;20540;-74
2022/04/27 09:27:20;;;;;;;11.20;3.63;;;19.80;58.80;;;;;;5021802;28;20475;-75
2022/04/27 09:30:07;;;;;;;14.55;3.63;;;19.90;58.60;;;;;;5022480;28;20020;-74
2022/04/27 09:32:37;;;;;;;11.85;3.80;;;20.00;58.40;;;;;;5009504;28;20036;-74
2022/04/27 09:35:08;;;;;;;11.35;3.95;;;20.00;57.60;;;;;;5024451;28;20033;-69
2022/04/27 09:37:43;;;;;;;17.15;3.75;;;20.10;56.90;;;;;;5027899;28;20429;-66
2022/04/27 09:40:13;;;;;;;14.67;2.83;;;20.10;56.50;;;;;;5025977;28;20029;-74
2022/04/27 09:42:46;;;;;;;10.25;3.38;;;20.20;56.50;;;;;;5024345;28;20100;-68
2022/04/27 09:45:25;;;;;;;16.35;3.97;;;20.30;56.50;;;;;;5008184;28;20041;-72
2022/04/27 09:48:00;;;;;;;8.30;3.00;;;20.30;55.70;;;;;;5025243;28;20061;-69
2022/04/27 09:50:27;;;;;;;;;;;20.40;55.90;;;;;;5025160;28;20060;-74
2022/04/27 09:52:55;;;;;;;13.68;4.03;;;20.50;55.40;;;;;;5028044;28;20394;-75
2022/04/27 09:55:24;;;;;;;11.75;2.90;;;20.60;54.80;;;;;;5027913;28;20071;-74
2022/04/27 09:57:57;;;;;;;17.90;4.30;;;20.70;54.70;;;;;;5026322;28;20024;-68
2022/04/27 10:00:26;;;;;;;13.38;3.53;;;20.70;54.60;;;;;;5027197;28;20672;-73
2022/04/27 10:02:56;;;;;;;12.32;3.97;;;20.80;54.70;;;;;;5028334;28;20045;-75
2022/04/27 10:05:23;;;;;;;16.63;5.00;;;20.90;54.10;;;;;;5028092;28;20025;-69
2022/04/27 10:07:51;;;;;;;11.63;3.97;;;21.00;53.80;;;;;;5028138;28;20022;-70
2022/04/27 10:10:18;;;;;;;7.85;3.00;;;21.00;53.70;;;;;;5029079;28;20363;-74
2022/04/27 10:12:45;;;;;;;7.18;3.15;;;21.10;53.60;;;;;;5043674;28;20021;-71
2022/04/27 10:15:13;;;;;;;9.88;3.20;;;21.20;53.20;;;;;;5028597;28;20116;-76
2022/04/27 10:17:40;;;;;;;9.48;2.78;;;21.20;52.40;;;;;;5024987;28;20469;-76
2022/04/27 10:20:31;;;;;;;9.10;3.30;;;21.30;52.20;;;;;;5029730;28;20053;-82
2022/04/27 10:23:20;;;;;;;12.73;3.30;;;21.40;52.20;;;;;;5019521;28;20158;-73
2022/04/27 10:26:12;;;;;;;12.38;3.63;;;21.50;52.30;;;;;;5027810;28;20022;-73
2022/04/27 10:28:49;;;;;;;12.25;2.90;;;21.60;51.50;;;;;;5025201;28;20051;-79
2022/04/27 10:31:42;;;;;;;20.38;4.55;;;21.70;51.40;;;;;;5027054;28;20032;-73
2022/04/27 10:34:21;;;;;;;8.13;3.35;;;21.80;51.60;;;;;;5029336;28;20609;-67
2022/04/27 10:36:54;;;;;;;9.82;3.38;;;21.80;51.50;;;;;;5026093;28;20021;-69
2022/04/27 10:39:26;;;;;;;13.80;3.33;;;21.90;51.30;;;;;;5009347;28;20029;-80
2022/04/27 10:41:55;;;;;;;11.77;3.22;;;22.00;51.20;;;;;;5028880;28;20371;-71
2022/04/27 10:44:42;;;;;;;11.10;3.55;;;22.10;50.60;;;;;;5027415;28;20025;-70
2022/04/27 10:47:18;;;;;;;16.48;3.78;;;22.10;50.00;;;;;;5026130;28;20456;-76
2022/04/27 10:49:49;;;;;;;10.20;3.17;;;22.30;50.30;;;;;;5011192;28;20029;-73
2022/04/27 10:52:15;;;;;;;10.63;3.40;;;22.40;50.10;;;;;;5028030;28;20049;-76
2022/04/27 10:54:42;;;;;;;18.50;4.15;;;22.40;49.60;;;;;;5027621;28;20112;-77
2022/04/27 10:57:15;;;;;;;26.48;5.35;;;22.50;49.40;;;;;;5007204;28;20030;-70
2022/04/27 10:59:51;;;;;;;16.67;3.40;;;22.60;49.70;;;;;;5006731;28;20029;-68
2022/04/27 11:02:34;;;;;;;38.78;27.55;;;22.70;49.10;;;;;;5010503;28;20538;-70
2022/04/27 11:05:20;;;;;;;35.95;19.30;;;22.70;49.50;;;;;;5028014;28;20025;-71
2022/04/27 11:08:20;;;;;;;27.02;10.43;;;22.80;49.40;;;;;;5024601;28;21043;-73
2022/04/27 11:10:48;;;;;;;18.48;6.00;;;22.90;48.50;;;;;;5025918;28;20052;-76
2022/04/27 11:13:15;;;;;;;13.38;4.45;;;22.90;47.70;;;;;;5010763;28;20132;-74
2022/04/27 11:15:41;;;;;;;9.90;3.42;;;23.00;47.00;;;;;;5026618;28;20115;-74
2022/04/27 11:18:08;;;;;;;11.90;3.00;;;23.10;46.80;;;;;;5021781;28;20017;-73
2022/04/27 11:20:39;;;;;;;8.32;3.03;;;23.10;46.50;;;;;;5027230;28;20042;-68
2022/04/27 11:23:08;;;;;;;9.68;2.30;;;23.20;45.60;;;;;;5026807;28;20060;-69
2022/04/27 11:25:42;;;;;;;10.85;2.85;;;23.20;44.70;;;;;;5027669;28;20072;-68
2022/04/27 11:28:11;;;;;;;9.32;2.55;;;23.30;45.80;;;;;;5021954;28;20037;-68
2022/04/27 11:30:38;;;;;;;8.95;2.50;;;23.40;46.20;;;;;;5027146;28;20072;-68
2022/04/27 11:33:04;;;;;;;8.88;2.53;;;23.40;46.30;;;;;;5026129;28;20100;-69
2022/04/27 11:35:46;;;;;;;9.15;3.17;;;23.40;46.10;;;;;;5027063;28;20072;-67
2022/04/27 11:38:33;;;;;;;12.15;2.88;;;23.50;46.10;;;;;;5024305;28;20112;-67
2022/04/27 11:41:02;;;;;;;14.70;10.40;;;23.60;45.80;;;;;;5025291;28;20028;-69
2022/04/27 11:43:33;;;;;;;12.40;6.03;;;23.70;46.00;;;;;;5027252;28;20025;-68
2022/04/27 11:46:00;;;;;;;10.57;4.90;;;23.70;45.00;;;;;;5026816;28;20025;-69
2022/04/27 11:48:30;;;;;;;18.70;4.25;;;23.70;45.00;;;;;;5024278;28;20022;-68
2022/04/27 11:50:59;;;;;;;8.40;2.63;;;23.70;44.40;;;;;;5027545;28;20064;-67
2022/04/27 11:53:26;;;;;;;13.98;3.95;;;23.80;44.10;;;;;;5024911;28;20040;-69
2022/04/27 11:55:53;;;;;;;7.07;2.80;;;23.80;43.30;;;;;;5027062;28;20408;-68
2022/04/27 11:58:27;;;;;;;11.70;4.68;;;23.90;43.10;;;;;;5023332;28;20140;-68
2022/04/27 12:00:58;;;;;;;10.95;3.20;;;23.90;42.00;;;;;;5027290;28;20380;-68
2022/04/27 12:03:32;;;;;;;6.15;2.17;;;24.00;41.60;;;;;;5026855;28;20354;-66
2022/04/27 12:05:58;;;;;;;12.52;3.47;;;24.10;41.50;;;;;;5025613;28;20365;-69
2022/04/27 12:08:27;;;;;;;11.75;2.55;;;24.10;41.20;;;;;;5005135;28;20033;-67
2022/04/27 12:10:54;;;;;;;5.30;2.60;;;24.10;40.90;;;;;;5024151;28;20384;-68
2022/04/27 12:13:21;;;;;;;11.38;2.17;;;24.20;40.30;;;;;;5027257;28;20499;-67
2022/04/27 12:15:51;;;;;;;10.27;2.85;;;24.20;39.80;;;;;;5023847;28;20032;-66
2022/04/27 12:18:28;;;;;;;7.75;2.42;;;24.30;40.00;;;;;;5024191;28;20426;-67
2022/04/27 12:20:58;;;;;;;5.68;2.80;;;24.30;39.80;;;;;;5025040;28;20401;-68
2022/04/27 12:23:31;;;;;;;12.05;2.65;;;24.40;39.70;;;;;;5025303;28;20083;-67
2022/04/27 12:26:01;;;;;;;7.45;2.85;;;24.40;39.50;;;;;;5025408;28;20507;-66
2022/04/27 12:28:44;;;;;;;9.18;2.35;;;24.50;39.60;;;;;;5020241;28;20485;-68
2022/04/27 12:31:10;;;;;;;5.13;2.45;;;24.60;39.40;;;;;;5025531;28;20060;-68
2022/04/27 12:33:45;;;;;;;5.70;2.08;;;24.60;39.40;;;;;;5024865;28;20040;-69
2022/04/27 12:39:06;;;;;;;6.50;1.75;;;24.70;39.90;;;;;;5022337;28;20075;-68
2022/04/27 12:41:41;;;;;;;10.13;2.20;;;24.70;40.10;;;;;;5025014;28;20033;-68
2022/04/27 12:44:12;;;;;;;3.78;1.58;;;24.70;39.50;;;;;;5025948;28;20118;-70
2022/04/27 12:46:59;;;;;;;7.45;1.88;;;24.70;39.40;;;;;;5023749;28;20025;-67
2022/04/27 12:49:28;;;;;;;6.15;1.83;;;24.60;38.60;;;;;;5023164;28;20076;-68
2022/04/27 12:51:55;;;;;;;6.63;2.15;;;24.60;38.50;;;;;;5025652;28;20028;-69
2022/04/27 12:54:42;;;;;;;4.68;1.90;;;24.60;38.60;;;;;;5024534;28;20025;-68
2022/04/27 12:57:08;;;;;;;5.88;1.77;;;24.60;38.60;;;;;;5025989;28;20017;-70
2022/04/27 12:59:57;;;;;;;8.52;1.40;;;24.60;38.30;;;;;;5023684;28;20021;-70
2022/04/27 13:02:25;;;;;;;17.70;11.15;;;24.60;37.80;;;;;;5023995;28;20022;-70
2022/04/27 13:04:52;;;;;;;17.17;6.15;;;24.60;37.70;;;;;;5025738;28;20040;-68
2022/04/27 13:07:19;;;;;;;10.25;3.78;;;24.50;38.20;;;;;;5011070;28;20041;-69
2022/04/27 13:12:35;;;;;;;5.00;1.83;;;24.60;38.00;;;;;;5028775;28;20044;-68
2022/04/27 13:15:03;;;;;;;5.68;2.65;;;24.60;37.60;;;;;;5027904;28;20030;-67